Tracer — PHAC — position and weather

sailwx.info

Track history (hours):
 
Tides and Currents Weather Stations Pressure Air Temp Water Temp Dewpoint Dewpoint Depression Visibility Wind Speed Wind Dir Waves Ship Positions

Tracer

Last reported at 2016-Sep-26 02:32 UTC. Time now 2016-Sep-26 07:09 UTC.
Position N 38°03' W 010°30'.

Length 101 m; beam 20 m.

Type: Cargo ship. MMSI: 245949000.

Date/timePositionNaut miles runAvg speedWind from/ knotsBaromVisibWave heightAir tempDewpointWater temp
2016-Sep-26 02:32N 38°03' W 010°30'1515.0
2016-Sep-26 01:33N 38°18' W 010°30'  
2016-Sep-23 04:33N 50°28' W 000°06'1515.2
2016-Sep-23 03:33N 50°32' E 000°17'4914.3
2016-Sep-23 00:07N 50°58' E 001°23'1017.3
2016-Sep-22 23:33N 51°05' E 001°34'4113.7
2016-Sep-22 20:33N 51°23' E 002°33'68 8.5
2016-Sep-22 12:31N 51°17' E 004°22'0 0.0
2016-Sep-22 04:34N 51°17' E 004°22'0 0.0
2016-Sep-22 03:33N 51°17' E 004°22'0 0.0
2016-Sep-22 00:34N 51°17' E 004°22'0 0.0
2016-Sep-21 23:33N 51°17' E 004°22'0 0.0
2016-Sep-21 22:33N 51°17' E 004°22'0 0.0
2016-Sep-21 19:33N 51°17' E 004°22'0 0.0
2016-Sep-21 16:33N 51°17' E 004°22'0 0.0
2016-Sep-21 09:33N 51°17' E 004°22'0 0.0
2016-Sep-21 08:33N 51°17' E 004°22'0 0.0
2016-Sep-21 05:33N 51°17' E 004°22'0 0.0
2016-Sep-21 03:33N 51°17' E 004°22'0 0.0
2016-Sep-21 02:34N 51°17' E 004°22'0 0.0
2016-Sep-20 17:34N 51°17' E 004°22'8 2.5
2016-Sep-20 14:33N 51°22' E 004°13'1010.0
2016-Sep-20 13:33N 51°25' E 003°58'38 6.3
2016-Sep-20 07:33N 52°02' E 003°55'1212.1
2016-Sep-20 06:34N 51°56' E 004°12'10 2.5
2016-Sep-20 02:32N 51°54' E 004°27'0 0.0
2016-Sep-19 23:32N 51°54' E 004°27'0 0.0
2016-Sep-19 19:32N 51°54' E 004°27'0 0.0
2016-Sep-19 18:32N 51°54' E 004°27'0 0.0
2016-Sep-19 16:29N 51°54' E 004°27'0 0.0
2016-Sep-19 14:31N 51°54' E 004°27'0 0.0
2016-Sep-19 13:28N 51°54' E 004°27'0 0.0
2016-Sep-19 12:31N 51°54' E 004°27'0 0.0
2016-Sep-19 09:32N 51°54' E 004°27'0 0.0
2016-Sep-19 07:32N 51°54' E 004°27'0 0.0
2016-Sep-19 06:32N 51°54' E 004°27'0 0.0
2016-Sep-19 03:31N 51°54' E 004°27'0 0.0
2016-Sep-19 02:32N 51°54' E 004°27'0 0.0
2016-Sep-19 00:31N 51°54' E 004°27'0 0.0
2016-Sep-18 19:31N 51°54' E 004°27'0 0.0
2016-Sep-18 15:31N 51°54' E 004°27'0 0.0
2016-Sep-18 14:33N 51°54' E 004°27'31612.5
2016-Sep-17 13:20N 49°43' W 003°08'  
Track history (hours):
 
Tides and Currents Weather Stations Pressure Air Temp Water Temp Dewpoint Dewpoint Depression Visibility Wind Speed Wind Dir Waves Ship Positions

Tracer

Last reported at 2016-Sep-26 02:32 UTC. Time now 2016-Sep-26 07:09 UTC.
Position N 38°03' W 010°30'.

Length 101 m; beam 20 m.

Type: Cargo ship. MMSI: 245949000.

Date/timePositionNaut miles runAvg speedWind from/ knotsBaromVisibWave heightAir tempDewpointWater temp
2016-Sep-26 02:32N 38°03' W 010°30'1515.0
2016-Sep-26 01:33N 38°18' W 010°30'  
2016-Sep-23 04:33N 50°28' W 000°06'1515.2
2016-Sep-23 03:33N 50°32' E 000°17'4914.3
2016-Sep-23 00:07N 50°58' E 001°23'1017.3
2016-Sep-22 23:33N 51°05' E 001°34'4113.7
2016-Sep-22 20:33N 51°23' E 002°33'68 8.5
2016-Sep-22 12:31N 51°17' E 004°22'0 0.0
2016-Sep-22 04:34N 51°17' E 004°22'0 0.0
2016-Sep-22 03:33N 51°17' E 004°22'0 0.0
2016-Sep-22 00:34N 51°17' E 004°22'0 0.0
2016-Sep-21 23:33N 51°17' E 004°22'0 0.0
2016-Sep-21 22:33N 51°17' E 004°22'0 0.0
2016-Sep-21 19:33N 51°17' E 004°22'0 0.0
2016-Sep-21 16:33N 51°17' E 004°22'0 0.0
2016-Sep-21 09:33N 51°17' E 004°22'0 0.0
2016-Sep-21 08:33N 51°17' E 004°22'0 0.0
2016-Sep-21 05:33N 51°17' E 004°22'0 0.0
2016-Sep-21 03:33N 51°17' E 004°22'0 0.0
2016-Sep-21 02:34N 51°17' E 004°22'0 0.0
2016-Sep-20 17:34N 51°17' E 004°22'8 2.5
2016-Sep-20 14:33N 51°22' E 004°13'1010.0
2016-Sep-20 13:33N 51°25' E 003°58'38 6.3
2016-Sep-20 07:33N 52°02' E 003°55'1212.1
2016-Sep-20 06:34N 51°56' E 004°12'10 2.5
2016-Sep-20 02:32N 51°54' E 004°27'0 0.0
2016-Sep-19 23:32N 51°54' E 004°27'0 0.0
2016-Sep-19 19:32N 51°54' E 004°27'0 0.0
2016-Sep-19 18:32N 51°54' E 004°27'0 0.0
2016-Sep-19 16:29N 51°54' E 004°27'0 0.0
2016-Sep-19 14:31N 51°54' E 004°27'0 0.0
2016-Sep-19 13:28N 51°54' E 004°27'0 0.0
2016-Sep-19 12:31N 51°54' E 004°27'0 0.0
2016-Sep-19 09:32N 51°54' E 004°27'0 0.0
2016-Sep-19 07:32N 51°54' E 004°27'0 0.0
2016-Sep-19 06:32N 51°54' E 004°27'0 0.0
2016-Sep-19 03:31N 51°54' E 004°27'0 0.0
2016-Sep-19 02:32N 51°54' E 004°27'0 0.0
2016-Sep-19 00:31N 51°54' E 004°27'0 0.0
2016-Sep-18 19:31N 51°54' E 004°27'0 0.0
2016-Sep-18 15:31N 51°54' E 004°27'0 0.0
2016-Sep-18 14:33N 51°54' E 004°27'31612.5
2016-Sep-17 13:20N 49°43' W 003°08'  

Dump ship's entire track history